Sagrada, Missouri
Current Conditions -  °F | °C
As of 3:55 PM on Friday 24 Oct 2014 (Local Time) from KH21 Reporting Station
Overcast Overcast  
Wind Chill: 23°   Ceiling: 4900
Heat Index: 23°   Visibility: 10mi
Dew Point: 15°   Wind: 6mph
Humidity: 61%   Direction: 200°SSW
Pressure: 30.04"   Gusts: NA
Location:  38.1656°N, 93.1481°W
Report Text: KH21 242055Z AUTO 20005KT 10SM SCT041 OVC049 23/15 A3004 RMK AO2
Loading
Personal Weather Stations






























Interactive Weather Map
Tropical Storm Tracking
New forecast layout! Learn more

10-Day Weather Forecast

Advertisements
Track Severe Weather on mobile